^^
Grace C. Lehan Memorial Weather Station Historical Data
Daily Summary for October 07, 2022 Units:  Both    English   Metric
Daily Weekly Monthly Yearly
  High: Low: Average:
Temperature: 77.5 °F /  25.3 °C 54.6 °F /  12.6 °C 65.3 °F /  18.5 °C
Dew Point: 63 °F /  17.2 °C 44.8 °F /  7.1 °C 55.7 °F /  13.2 °C
Humidity: 96% 43.3% 74%
Wind Speed: 2mph /  3.2km/h - 0.3mph /  0.5km/h
Wind Gust: 15mph /  24.1km/h - -
Wind- - West
Pressure: 30.01 in /  1016.1 hPa 29.83 in /  1010 hPa -
Precipitation: 0.00 in /  0 mm    
 
 
Tabular Data for October 07, 2022
Time Temperature Dew Point Pressure Wind Wind Speed Wind Gust Humidity Rainfall Rate (Hourly) solar
00:04 57.1 °F /  13.9 °C 54.8 °F /  12.7 °C 29.91in /  1012.8hPa Calm     92% 0.00in /  0mm 0 W/m2
00:09 57.1 °F /  13.9 °C 54.8 °F /  12.7 °C 29.91in /  1012.8hPa Calm     92% 0.00in /  0mm 0 W/m2
00:14 57.1 °F /  13.9 °C 54.8 °F /  12.7 °C 29.91in /  1012.8hPa Calm     92% 0.00in /  0mm 0 W/m2
00:19 57.1 °F /  13.9 °C 54.8 °F /  12.7 °C 29.91in /  1012.8hPa Calm     92% 0.00in /  0mm 0 W/m2
00:24 57.1 °F /  13.9 °C 55.1 °F /  12.8 °C 29.91in /  1012.8hPa Calm     93% 0.00in /  0mm 0 W/m2
00:29 57.2 °F /  14 °C 55.2 °F /  12.9 °C 29.91in /  1012.8hPa Calm     93% 0.00in /  0mm 0 W/m2
00:34 57.3 °F /  14.1 °C 55.3 °F /  12.9 °C 29.91in /  1012.8hPa Calm     93% 0.00in /  0mm 0 W/m2
00:39 57.4 °F /  14.1 °C 55.4 °F /  13 °C 29.91in /  1012.8hPa Calm     93% 0.00in /  0mm 0 W/m2
00:44 57.4 °F /  14.1 °C 55.4 °F /  13 °C 29.90in /  1012.4hPa Calm     93% 0.00in /  0mm 0 W/m2
00:49 57.4 °F /  14.1 °C 55.4 °F /  13 °C 29.90in /  1012.4hPa Calm     93% 0.00in /  0mm 0 W/m2
00:54 57.4 °F /  14.1 °C 55.4 °F /  13 °C 29.90in /  1012.4hPa Calm     93% 0.00in /  0mm 0 W/m2
00:59 57.4 °F /  14.1 °C 55.4 °F /  13 °C 29.90in /  1012.4hPa Calm     93% 0.00in /  0mm 0 W/m2
01:04 57.4 °F /  14.1 °C 55.4 °F /  13 °C 29.90in /  1012.4hPa Calm     93% 0.00in /  0mm 0 W/m2
01:09 57.3 °F /  14.1 °C 55.3 °F /  12.9 °C 29.90in /  1012.4hPa Calm     93% 0.00in /  0mm 0 W/m2
01:14 57.3 °F /  14.1 °C 55.3 °F /  12.9 °C 29.90in /  1012.4hPa Calm     93% 0.00in /  0mm 0 W/m2
01:19 57.3 °F /  14.1 °C 55.3 °F /  12.9 °C 29.90in /  1012.4hPa Calm     93% 0.00in /  0mm 0 W/m2
01:24 57.3 °F /  14.1 °C 55.3 °F /  12.9 °C 29.90in /  1012.4hPa Calm     93% 0.00in /  0mm 0 W/m2
01:29 57.4 °F /  14.1 °C 55.4 °F /  13 °C 29.90in /  1012.4hPa Calm     93% 0.00in /  0mm 0 W/m2
01:34 57.4 °F /  14.1 °C 55.4 °F /  13 °C 29.90in /  1012.4hPa Calm     93% 0.00in /  0mm 0 W/m2
01:39 57.3 °F /  14.1 °C 55.3 °F /  12.9 °C 29.90in /  1012.4hPa Calm     93% 0.00in /  0mm 0 W/m2
01:44 57.3 °F /  14.1 °C 55.3 °F /  12.9 °C 29.90in /  1012.4hPa Calm     93% 0.00in /  0mm 0 W/m2
01:49 57.2 °F /  14 °C 55.2 °F /  12.9 °C 29.90in /  1012.4hPa Calm     93% 0.00in /  0mm 0 W/m2
01:54 57 °F /  13.9 °C 55 °F /  12.8 °C 29.90in /  1012.4hPa Calm     93% 0.00in /  0mm 0 W/m2
01:59 56.9 °F /  13.8 °C 54.9 °F /  12.7 °C 29.90in /  1012.4hPa Calm     93% 0.00in /  0mm 0 W/m2
02:04 56.8 °F /  13.8 °C 54.8 °F /  12.7 °C 29.90in /  1012.4hPa Calm     93% 0.00in /  0mm 0 W/m2
02:09 56.7 °F /  13.7 °C 54.7 °F /  12.6 °C 29.90in /  1012.4hPa Calm     93% 0.00in /  0mm 0 W/m2
02:14 56.6 °F /  13.7 °C 54.6 °F /  12.6 °C 29.90in /  1012.4hPa Calm     93% 0.00in /  0mm 0 W/m2
02:19 56.6 °F /  13.7 °C 54.6 °F /  12.6 °C 29.90in /  1012.4hPa Calm     93% 0.00in /  0mm 0 W/m2
02:24 56.5 °F /  13.6 °C 54.5 °F /  12.5 °C 29.90in /  1012.4hPa Calm     93% 0.00in /  0mm 0 W/m2
02:29 56.4 °F /  13.6 °C 54.4 °F /  12.4 °C 29.90in /  1012.4hPa Calm     93% 0.00in /  0mm 0 W/m2
02:34 56.4 °F /  13.6 °C 54.4 °F /  12.4 °C 29.90in /  1012.4hPa Calm     93% 0.00in /  0mm 0 W/m2
02:39 56.3 °F /  13.5 °C 54.3 °F /  12.4 °C 29.90in /  1012.4hPa Calm     93% 0.00in /  0mm 0 W/m2
02:40 56.3 °F /  13.5 °C 54.3 °F /  12.4 °C 29.89in /  1012.1hPa Calm     93% 0.00in /  0mm 0 W/m2
03:00 56.1 °F /  13.4 °C 54.4 °F /  12.4 °C 29.89in /  1012.1hPa Calm     94% 0.00in /  0mm 0 W/m2
03:30 55.7 °F /  13.2 °C 54 °F /  12.2 °C 29.89in /  1012.1hPa Calm     94% 0.00in /  0mm 0 W/m2
04:04 55.3 °F /  12.9 °C 53.6 °F /  12 °C 29.89in /  1012.1hPa Calm     94% 0.00in /  0mm 0 W/m2
04:09 55.3 °F /  12.9 °C 53.6 °F /  12 °C 29.89in /  1012.1hPa Calm     94% 0.00in /  0mm 0 W/m2
04:14 55.3 °F /  12.9 °C 53.6 °F /  12 °C 29.89in /  1012.1hPa Calm     94% 0.00in /  0mm 0 W/m2
04:19 55.2 °F /  12.9 °C 53.5 °F /  11.9 °C 29.89in /  1012.1hPa Calm     94% 0.00in /  0mm 0 W/m2
04:24 55.1 °F /  12.8 °C 53.4 °F /  11.9 °C 29.89in /  1012.1hPa Calm     94% 0.00in /  0mm 0 W/m2
04:29 54.9 °F /  12.7 °C 53.2 °F /  11.8 °C 29.88in /  1011.7hPa Calm     94% 0.00in /  0mm 0 W/m2
04:34 54.8 °F /  12.7 °C 53.1 °F /  11.7 °C 29.89in /  1012.1hPa Calm     94% 0.00in /  0mm 0 W/m2
04:39 54.8 °F /  12.7 °C 53.1 °F /  11.7 °C 29.89in /  1012.1hPa Calm     94% 0.00in /  0mm 0 W/m2
04:44 54.8 °F /  12.7 °C 53.1 °F /  11.7 °C 29.89in /  1012.1hPa Calm     94% 0.00in /  0mm 0 W/m2
04:49 54.8 °F /  12.7 °C 53.1 °F /  11.7 °C 29.89in /  1012.1hPa Calm     94% 0.00in /  0mm 0 W/m2
04:54 54.8 °F /  12.7 °C 53.1 °F /  11.7 °C 29.89in /  1012.1hPa Calm     94% 0.00in /  0mm 0 W/m2
04:59 54.7 °F /  12.6 °C 53 °F /  11.7 °C 29.89in /  1012.1hPa Calm     94% 0.00in /  0mm 0 W/m2
05:04 54.6 °F /  12.6 °C 52.9 °F /  11.6 °C 29.89in /  1012.1hPa Calm     94% 0.00in /  0mm 0 W/m2
05:09 54.6 °F /  12.6 °C 53 °F /  11.7 °C 29.89in /  1012.1hPa Calm     94.3% 0.00in /  0mm 0 W/m2
05:14 54.6 °F /  12.6 °C 53.2 °F /  11.8 °C 29.89in /  1012.1hPa Calm     95% 0.00in /  0mm 0 W/m2
05:19 54.7 °F /  12.6 °C 53.3 °F /  11.8 °C 29.89in /  1012.1hPa Calm     95% 0.00in /  0mm 0 W/m2
05:30 54.7 °F /  12.6 °C 53.3 °F /  11.8 °C 29.89in /  1012.1hPa Calm     95% 0.00in /  0mm 0 W/m2
06:00 54.8 °F /  12.7 °C 53.4 °F /  11.9 °C 29.90in /  1012.4hPa Calm     95% 0.00in /  0mm 0 W/m2
07:00 54.9 °F /  12.7 °C 53.5 °F /  11.9 °C 29.90in /  1012.4hPa Calm     95% 0.00in /  0mm 0 W/m2
07:30 55.4 °F /  13 °C 54.3 °F /  12.4 °C 29.90in /  1012.4hPa Calm     96% 0.00in /  0mm 14 W/m2
08:04 56.3 °F /  13.5 °C 55.2 °F /  12.9 °C 29.90in /  1012.4hPa Calm     96% 0.00in /  0mm 47 W/m2
08:09 56.4 °F /  13.6 °C 55.2 °F /  12.9 °C 29.90in /  1012.4hPa Calm     96% 0.00in /  0mm 60 W/m2
08:14 56.5 °F /  13.6 °C 55.4 °F /  13 °C 29.90in /  1012.4hPa Calm     96% 0.00in /  0mm 74 W/m2
08:19 56.8 °F /  13.8 °C 55.7 °F /  13.2 °C 29.91in /  1012.8hPa Calm     96% 0.00in /  0mm 74 W/m2
08:24 57 °F /  13.9 °C 55.9 °F /  13.3 °C 29.91in /  1012.8hPa Calm     96% 0.00in /  0mm 70 W/m2
08:29 57.3 °F /  14.1 °C 56.1 °F /  13.4 °C 29.91in /  1012.8hPa Calm     96% 0.00in /  0mm 60 W/m2
08:34 57.5 °F /  14.2 °C 56.4 °F /  13.6 °C 29.91in /  1012.8hPa Calm     96% 0.00in /  0mm 47 W/m2
08:39 57.7 °F /  14.3 °C 56.6 °F /  13.7 °C 29.91in /  1012.8hPa Calm     96% 0.00in /  0mm 56 W/m2
08:44 57.9 °F /  14.4 °C 56.8 °F /  13.8 °C 29.91in /  1012.8hPa Calm     96% 0.00in /  0mm 63 W/m2
08:49 58.1 °F /  14.5 °C 57 °F /  13.9 °C 29.91in /  1012.8hPa Calm     96% 0.00in /  0mm 63 W/m2
08:54 58.4 °F /  14.7 °C 57.3 °F /  14.1 °C 29.91in /  1012.8hPa Calm     96% 0.00in /  0mm 86 W/m2
08:59 58.8 °F /  14.9 °C 57.6 °F /  14.2 °C 29.91in /  1012.8hPa Calm   1mph /  1.6km/h 96% 0.00in /  0mm 350 W/m2
09:04 59.3 °F /  15.2 °C 58.2 °F /  14.6 °C 29.91in /  1012.8hPa Calm   1mph /  1.6km/h 96% 0.00in /  0mm 408 W/m2
09:09 60.4 °F /  15.8 °C 59.2 °F /  15.1 °C 29.91in /  1012.8hPa Calm     96% 0.00in /  0mm 485 W/m2
09:14 61.6 °F /  16.4 °C 60.4 °F /  15.8 °C 29.91in /  1012.8hPa Calm     96% 0.00in /  0mm 485 W/m2
09:19 62.5 °F /  16.9 °C 61.1 °F /  16.2 °C 29.91in /  1012.8hPa Calm     95.4% 0.00in /  0mm 287 W/m2
09:24 63.2 °F /  17.3 °C 61.2 °F /  16.2 °C 29.91in /  1012.8hPa Calm     93.1% 0.00in /  0mm 227 W/m2
09:29 63.9 °F /  17.7 °C 61.1 °F /  16.2 °C 29.91in /  1012.8hPa Calm     90.6% 0.00in /  0mm 473 W/m2
09:34 64.7 °F /  18.2 °C 61.3 °F /  16.3 °C 29.91in /  1012.8hPa Calm     88.8% 0.00in /  0mm 473 W/m2
09:39 65.8 °F /  18.8 °C 61.7 °F /  16.5 °C 29.91in /  1012.8hPa Calm   1mph /  1.6km/h 86.8% 0.00in /  0mm 462 W/m2
09:44 67 °F /  19.4 °C 61.9 °F /  16.6 °C 29.91in /  1012.8hPa Calm   1mph /  1.6km/h 83.6% 0.00in /  0mm 478 W/m2
09:49 68.2 °F /  20.1 °C 61.8 °F /  16.6 °C 29.91in /  1012.8hPa Calm   1mph /  1.6km/h 80% 0.00in /  0mm 496 W/m2
09:54 69.3 °F /  20.7 °C 61.9 °F /  16.6 °C 29.91in /  1012.8hPa Calm   1mph /  1.6km/h 77.4% 0.00in /  0mm 508 W/m2
09:59 70.4 °F /  21.3 °C 62.3 °F /  16.8 °C 29.90in /  1012.4hPa Calm   1mph /  1.6km/h 75.6% 0.00in /  0mm 513 W/m2
10:04 71.2 °F /  21.8 °C 62 °F /  16.7 °C 29.90in /  1012.4hPa Calm   1mph /  1.6km/h 72.7% 0.00in /  0mm 524 W/m2
10:09 72 °F /  22.2 °C 62.2 °F /  16.8 °C 29.90in /  1012.4hPa Calm     71.3% 0.00in /  0mm 533 W/m2
10:14 72.7 °F /  22.6 °C 62.4 °F /  16.9 °C 29.90in /  1012.4hPa Calm     70.1% 0.00in /  0mm 543 W/m2
10:19 73.4 °F /  23 °C 62.7 °F /  17.1 °C 29.90in /  1012.4hPa Calm     69.1% 0.00in /  0mm 554 W/m2
10:24 74.1 °F /  23.4 °C 62.4 °F /  16.9 °C 29.90in /  1012.4hPa Calm     66.9% 0.00in /  0mm 566 W/m2
10:29 74.6 °F /  23.7 °C 62.5 °F /  16.9 °C 29.90in /  1012.4hPa Calm     66% 0.00in /  0mm 577 W/m2
10:34 75.1 °F /  23.9 °C 62.3 °F /  16.8 °C 29.90in /  1012.4hPa Calm     64.5% 0.00in /  0mm 589 W/m2
10:39 75.4 °F /  24.1 °C 62.4 °F /  16.9 °C 29.90in /  1012.4hPa Calm     64% 0.00in /  0mm 596 W/m2
10:44 75.7 °F /  24.3 °C 62.3 °F /  16.8 °C 29.90in /  1012.4hPa North 0.1mph /  0.2km/h 3mph /  4.8km/h 63.1% 0.00in /  0mm 605 W/m2
10:48 75.9 °F /  24.4 °C 62.3 °F /  16.8 °C 29.90in /  1012.4hPa Calm   3mph /  4.8km/h 62.7% 0.00in /  0mm 612 W/m2
11:00 76.5 °F /  24.7 °C 61.6 °F /  16.4 °C 29.89in /  1012.1hPa Calm   3mph /  4.8km/h 60% 0.00in /  0mm 607 W/m2
11:30 76 °F /  24.4 °C 61.1 °F /  16.2 °C 29.89in /  1012.1hPa Calm   3mph /  4.8km/h 60% 0.00in /  0mm 542 W/m2
12:04 75.2 °F /  24 °C 61.6 °F /  16.4 °C 29.89in /  1012.1hPa WSW 0.1mph /  0.2km/h 3mph /  4.8km/h 62.8% 0.00in /  0mm 542 W/m2
12:09 75.1 °F /  23.9 °C 61.9 °F /  16.6 °C 29.89in /  1012.1hPa Calm   1mph /  1.6km/h 63.5% 0.00in /  0mm 179 W/m2
12:14 75.2 °F /  24 °C 61.3 °F /  16.3 °C 29.89in /  1012.1hPa Calm   1mph /  1.6km/h 61.8% 0.00in /  0mm 281 W/m2
12:19 75.4 °F /  24.1 °C 61.7 °F /  16.5 °C 29.88in /  1011.7hPa WSW 0.2mph /  0.3km/h 2mph /  3.2km/h 62.4% 0.00in /  0mm 461 W/m2
12:24 75.6 °F /  24.2 °C 61.9 °F /  16.6 °C 29.88in /  1011.7hPa Calm   2mph /  3.2km/h 62.5% 0.00in /  0mm 615 W/m2
12:29 75.8 °F /  24.3 °C 62 °F /  16.7 °C 29.88in /  1011.7hPa Calm   2mph /  3.2km/h 62.2% 0.00in /  0mm 615 W/m2
12:34 76 °F /  24.4 °C 62 °F /  16.7 °C 29.88in /  1011.7hPa WSW 1mph /  1.6km/h 4mph /  6.4km/h 62% 0.00in /  0mm 132 W/m2
12:39 76.2 °F /  24.6 °C 62.4 °F /  16.9 °C 29.88in /  1011.7hPa WSW 0.5mph /  0.8km/h 6mph /  9.7km/h 62.3% 0.00in /  0mm 186 W/m2
12:44 76.3 °F /  24.6 °C 62.4 °F /  16.9 °C 29.88in /  1011.7hPa West 0.3mph /  0.5km/h 6mph /  9.7km/h 62% 0.00in /  0mm 244 W/m2
12:49 76.4 °F /  24.7 °C 63 °F /  17.2 °C 29.87in /  1011.4hPa West 0.3mph /  0.5km/h 6mph /  9.7km/h 63.3% 0.00in /  0mm 148 W/m2
12:54 76.4 °F /  24.7 °C 61.3 °F /  16.3 °C 29.87in /  1011.4hPa West 0.4mph /  0.6km/h 6mph /  9.7km/h 59.7% 0.00in /  0mm 158 W/m2
12:59 76.5 °F /  24.7 °C 60.6 °F /  15.9 °C 29.87in /  1011.4hPa West 0.8mph /  1.3km/h 6mph /  9.7km/h 58% 0.00in /  0mm 174 W/m2
13:04 76.6 °F /  24.8 °C 60.8 °F /  16 °C 29.87in /  1011.4hPa West 0.9mph /  1.4km/h 7mph /  11.3km/h 58.3% 0.00in /  0mm 710 W/m2
13:09 76.8 °F /  24.9 °C 61 °F /  16.1 °C 29.87in /  1011.4hPa West 0.2mph /  0.3km/h 7mph /  11.3km/h 58.2% 0.00in /  0mm 615 W/m2
13:14 77.1 °F /  25.1 °C 60.3 °F /  15.7 °C 29.86in /  1011.1hPa WSW 0.4mph /  0.6km/h 7mph /  11.3km/h 56.2% 0.00in /  0mm 339 W/m2
13:19 77.4 °F /  25.2 °C 59.2 °F /  15.1 °C 29.86in /  1011.1hPa SW 0.7mph /  1.1km/h 7mph /  11.3km/h 53.6% 0.00in /  0mm 156 W/m2
13:24 77.5 °F /  25.3 °C 59.9 °F /  15.5 °C 29.86in /  1011.1hPa WSW 0.5mph /  0.8km/h 7mph /  11.3km/h 54.7% 0.00in /  0mm 232 W/m2
13:29 77.4 °F /  25.2 °C 58.6 °F /  14.8 °C 29.86in /  1011.1hPa WSW 0.9mph /  1.4km/h 7mph /  11.3km/h 52.2% 0.00in /  0mm 91 W/m2
13:34 77.4 °F /  25.2 °C 58.6 °F /  14.8 °C 29.86in /  1011.1hPa WSW 0.3mph /  0.5km/h 7mph /  11.3km/h 52.5% 0.00in /  0mm 100 W/m2
13:39 77.3 °F /  25.2 °C 57.5 °F /  14.2 °C 29.85in /  1010.7hPa WSW 0.6mph /  1km/h 5mph /  8km/h 50.5% 0.00in /  0mm 160 W/m2
13:44 77.3 °F /  25.2 °C 55.8 °F /  13.2 °C 29.85in /  1010.7hPa WSW 0.5mph /  0.8km/h 5mph /  8km/h 47.5% 0.00in /  0mm 72 W/m2
13:49 77.2 °F /  25.1 °C 54 °F /  12.2 °C 29.85in /  1010.7hPa West 0.4mph /  0.6km/h 5mph /  8km/h 44.6% 0.00in /  0mm 54 W/m2
13:54 77.2 °F /  25.1 °C 54.6 °F /  12.6 °C 29.85in /  1010.7hPa WNW 1.2mph /  1.9km/h 8mph /  12.9km/h 45.6% 0.00in /  0mm 105 W/m2
13:59 77.1 °F /  25.1 °C 54 °F /  12.2 °C 29.85in /  1010.7hPa West 1.4mph /  2.3km/h 11mph /  17.7km/h 44.8% 0.00in /  0mm 100 W/m2
14:04 77 °F /  25 °C 54.1 °F /  12.3 °C 29.85in /  1010.7hPa WNW 1mph /  1.6km/h 11mph /  17.7km/h 45.1% 0.00in /  0mm 100 W/m2
14:09 77 °F /  25 °C 53.8 °F /  12.1 °C 29.85in /  1010.7hPa West 1.4mph /  2.3km/h 11mph /  17.7km/h 44.5% 0.00in /  0mm 62 W/m2
14:14 77 °F /  25 °C 53.7 °F /  12.1 °C 29.85in /  1010.7hPa Calm   11mph /  17.7km/h 44.4% 0.00in /  0mm 63 W/m2
14:19 77.2 °F /  25.1 °C 54.8 °F /  12.7 °C 29.85in /  1010.7hPa WSW 0.5mph /  0.8km/h 11mph /  17.7km/h 46.1% 0.00in /  0mm 65 W/m2
14:24 77.3 °F /  25.2 °C 55.2 °F /  12.9 °C 29.85in /  1010.7hPa WSW 0.7mph /  1.1km/h 11mph /  17.7km/h 46.5% 0.00in /  0mm 84 W/m2
14:29 77.4 °F /  25.2 °C 54.9 °F /  12.7 °C 29.84in /  1010.4hPa WSW 0.9mph /  1.4km/h 11mph /  17.7km/h 45.8% 0.00in /  0mm 56 W/m2
14:34 77.4 °F /  25.2 °C 54.8 °F /  12.7 °C 29.84in /  1010.4hPa WSW 1.8mph /  2.9km/h 11mph /  17.7km/h 45.6% 0.00in /  0mm 56 W/m2
14:39 77.3 °F /  25.2 °C 53.3 °F /  11.8 °C 29.84in /  1010.4hPa SW 1.2mph /  1.9km/h 11mph /  17.7km/h 43.3% 0.00in /  0mm 100 W/m2
14:44 77.2 °F /  25.1 °C 53.9 °F /  12.2 °C 29.84in /  1010.4hPa SW 0.4mph /  0.6km/h 11mph /  17.7km/h 44.5% 0.00in /  0mm 378 W/m2
14:49 77.2 °F /  25.1 °C 54.2 °F /  12.3 °C 29.83in /  1010hPa WSW 0.6mph /  1km/h 11mph /  17.7km/h 44.9% 0.00in /  0mm 79 W/m2
14:54 77.1 °F /  25.1 °C 54.8 °F /  12.7 °C 29.83in /  1010hPa West 0.6mph /  1km/h 11mph /  17.7km/h 46% 0.00in /  0mm 49 W/m2
14:59 77.1 °F /  25.1 °C 55 °F /  12.8 °C 29.83in /  1010hPa WSW 0.1mph /  0.2km/h 11mph /  17.7km/h 46.4% 0.00in /  0mm 51 W/m2
15:04 77 °F /  25 °C 54.8 °F /  12.7 °C 29.83in /  1010hPa WSW 1mph /  1.6km/h 11mph /  17.7km/h 46.3% 0.00in /  0mm 54 W/m2
15:09 76.8 °F /  24.9 °C 54.7 °F /  12.6 °C 29.83in /  1010hPa SW 0.2mph /  0.3km/h 9mph /  14.5km/h 46.3% 0.00in /  0mm 63 W/m2
15:14 76.7 °F /  24.8 °C 55 °F /  12.8 °C 29.83in /  1010hPa WSW 1.5mph /  2.4km/h 10mph /  16.1km/h 47% 0.00in /  0mm 54 W/m2
15:19 76.7 °F /  24.8 °C 55.2 °F /  12.9 °C 29.83in /  1010hPa WSW 0.4mph /  0.6km/h 10mph /  16.1km/h 47.4% 0.00in /  0mm 58 W/m2
15:24 76.8 °F /  24.9 °C 55.5 °F /  13.1 °C 29.83in /  1010hPa WSW 0.2mph /  0.3km/h 10mph /  16.1km/h 47.9% 0.00in /  0mm 98 W/m2
15:29 76.9 °F /  24.9 °C 56 °F /  13.3 °C 29.83in /  1010hPa West 0.6mph /  1km/h 10mph /  16.1km/h 48.6% 0.00in /  0mm 77 W/m2
15:34 77 °F /  25 °C 56.3 °F /  13.5 °C 29.83in /  1010hPa West 0.1mph /  0.2km/h 10mph /  16.1km/h 48.9% 0.00in /  0mm 63 W/m2
15:39 77.1 °F /  25.1 °C 56.5 °F /  13.6 °C 29.83in /  1010hPa West 0.4mph /  0.6km/h 5mph /  8km/h 49.1% 0.00in /  0mm 63 W/m2
15:44 77 °F /  25 °C 56.4 °F /  13.6 °C 29.83in /  1010hPa WSW 0.9mph /  1.4km/h 7mph /  11.3km/h 48.9% 0.00in /  0mm 47 W/m2
15:49 77 °F /  25 °C 56.8 °F /  13.8 °C 29.83in /  1010hPa West 1.2mph /  1.9km/h 10mph /  16.1km/h 49.9% 0.00in /  0mm 70 W/m2
15:54 76.6 °F /  24.8 °C 56.6 °F /  13.7 °C 29.83in /  1010hPa West 1.4mph /  2.3km/h 10mph /  16.1km/h 50% 0.00in /  0mm 74 W/m2
15:59 76.3 °F /  24.6 °C 56.7 °F /  13.7 °C 29.83in /  1010hPa WSW 0.1mph /  0.2km/h 10mph /  16.1km/h 50.8% 0.00in /  0mm 70 W/m2
16:04 76 °F /  24.4 °C 57.1 °F /  13.9 °C 29.83in /  1010hPa Calm     52% 0.00in /  0mm 49 W/m2
16:09 76 °F /  24.4 °C 57.5 °F /  14.2 °C 29.83in /  1010hPa WNW 0.2mph /  0.3km/h 5mph /  8km/h 52.7% 0.00in /  0mm 62 W/m2
16:14 76 °F /  24.4 °C 57.7 °F /  14.3 °C 29.83in /  1010hPa WSW 1.5mph /  2.4km/h 11mph /  17.7km/h 53.1% 0.00in /  0mm 40 W/m2
16:19 75.9 °F /  24.4 °C 57.3 °F /  14.1 °C 29.84in /  1010.4hPa WSW 1.1mph /  1.8km/h 11mph /  17.7km/h 52.6% 0.00in /  0mm 63 W/m2
16:24 75.7 °F /  24.3 °C 57.3 °F /  14.1 °C 29.84in /  1010.4hPa Calm   11mph /  17.7km/h 52.9% 0.00in /  0mm 62 W/m2
16:29 75.6 °F /  24.2 °C 57.8 °F /  14.3 °C 29.84in /  1010.4hPa West 0.9mph /  1.4km/h 12mph /  19.3km/h 53.9% 0.00in /  0mm 62 W/m2
16:34 75.5 °F /  24.2 °C 57.7 °F /  14.3 °C 29.84in /  1010.4hPa West 1.2mph /  1.9km/h 12mph /  19.3km/h 54% 0.00in /  0mm 58 W/m2
16:39 75.4 °F /  24.1 °C 58 °F /  14.4 °C 29.84in /  1010.4hPa WNW 0.1mph /  0.2km/h 9mph /  14.5km/h 54.7% 0.00in /  0mm 56 W/m2
16:44 75.3 °F /  24.1 °C 57.9 °F /  14.4 °C 29.84in /  1010.4hPa WSW 0.3mph /  0.5km/h 9mph /  14.5km/h 54.8% 0.00in /  0mm 58 W/m2
16:49 75.2 °F /  24 °C 58 °F /  14.4 °C 29.84in /  1010.4hPa WSW 0.5mph /  0.8km/h 10mph /  16.1km/h 55.1% 0.00in /  0mm 51 W/m2
16:54 75 °F /  23.9 °C 58.1 °F /  14.5 °C 29.84in /  1010.4hPa WSW 0.2mph /  0.3km/h 10mph /  16.1km/h 55.6% 0.00in /  0mm 46 W/m2
16:59 74.9 °F /  23.8 °C 58.2 °F /  14.6 °C 29.84in /  1010.4hPa WSW 0.1mph /  0.2km/h 10mph /  16.1km/h 56.1% 0.00in /  0mm 46 W/m2
17:04 74.7 °F /  23.7 °C 58.1 °F /  14.5 °C 29.84in /  1010.4hPa WSW 0.3mph /  0.5km/h 10mph /  16.1km/h 56.3% 0.00in /  0mm 62 W/m2
17:09 74.6 °F /  23.7 °C 57.8 °F /  14.3 °C 29.84in /  1010.4hPa West 0.5mph /  0.8km/h 9mph /  14.5km/h 56% 0.00in /  0mm 54 W/m2
17:14 74.4 °F /  23.6 °C 57.8 °F /  14.3 °C 29.84in /  1010.4hPa West 0.2mph /  0.3km/h 9mph /  14.5km/h 56.2% 0.00in /  0mm 35 W/m2
17:17 74.2 °F /  23.4 °C 57.9 °F /  14.4 °C 29.84in /  1010.4hPa Calm   9mph /  14.5km/h 56.7% 0.00in /  0mm 30 W/m2
18:00 71 °F /  21.7 °C 57.8 °F /  14.3 °C 29.87in /  1011.4hPa WNW 1mph /  1.6km/h 13mph /  20.9km/h 63% 0.00in /  0mm 27 W/m2
19:00 65.6 °F /  18.7 °C 57.5 °F /  14.2 °C 29.90in /  1012.4hPa Calm   10mph /  16.1km/h 75% 0.00in /  0mm 0 W/m2
19:30 64.3 °F /  17.9 °C 55.5 °F /  13.1 °C 29.92in /  1013.1hPa WNW 1mph /  1.6km/h 15mph /  24.1km/h 73% 0.00in /  0mm 0 W/m2
20:04 62.6 °F /  17 °C 54 °F /  12.2 °C 29.94in /  1013.8hPa NW 1.9mph /  3.1km/h 14mph /  22.5km/h 73.4% 0.00in /  0mm 0 W/m2
20:09 62.5 °F /  16.9 °C 54.1 °F /  12.3 °C 29.94in /  1013.8hPa NW 0.8mph /  1.3km/h 14mph /  22.5km/h 74% 0.00in /  0mm 0 W/m2
20:14 62.4 °F /  16.9 °C 54 °F /  12.2 °C 29.95in /  1014.1hPa NW 0.4mph /  0.6km/h 14mph /  22.5km/h 74% 0.00in /  0mm 0 W/m2
20:19 62.2 °F /  16.8 °C 53.9 °F /  12.2 °C 29.95in /  1014.1hPa NNW 0.2mph /  0.3km/h 14mph /  22.5km/h 74% 0.00in /  0mm 0 W/m2
20:24 62.1 °F /  16.7 °C 54 °F /  12.2 °C 29.95in /  1014.1hPa NNW 0.1mph /  0.2km/h 14mph /  22.5km/h 74.5% 0.00in /  0mm 0 W/m2
20:29 62 °F /  16.7 °C 53.9 °F /  12.2 °C 29.95in /  1014.1hPa NNW 0.5mph /  0.8km/h 14mph /  22.5km/h 74.7% 0.00in /  0mm 0 W/m2
20:34 61.8 °F /  16.6 °C 53.2 °F /  11.8 °C 29.95in /  1014.1hPa NNW 0.4mph /  0.6km/h 14mph /  22.5km/h 73.5% 0.00in /  0mm 0 W/m2
20:39 61.6 °F /  16.4 °C 52.8 °F /  11.6 °C 29.95in /  1014.1hPa NNW 0.1mph /  0.2km/h 5mph /  8km/h 73% 0.00in /  0mm 0 W/m2
20:44 61.4 °F /  16.3 °C 52.6 °F /  11.4 °C 29.96in /  1014.4hPa Calm   5mph /  8km/h 73% 0.00in /  0mm 0 W/m2
20:49 61.1 °F /  16.2 °C 52.3 °F /  11.3 °C 29.96in /  1014.4hPa NNW 0.1mph /  0.2km/h 5mph /  8km/h 72.6% 0.00in /  0mm 0 W/m2
20:54 60.9 °F /  16.1 °C 52.1 °F /  11.2 °C 29.97in /  1014.8hPa NNW 0.4mph /  0.6km/h 5mph /  8km/h 72.9% 0.00in /  0mm 0 W/m2
20:59 60.7 °F /  15.9 °C 51.9 °F /  11.1 °C 29.97in /  1014.8hPa NW 0.4mph /  0.6km/h 5mph /  8km/h 72.8% 0.00in /  0mm 0 W/m2
21:04 60.5 °F /  15.8 °C 51.8 °F /  11 °C 29.97in /  1014.8hPa SSW 0.1mph /  0.2km/h 5mph /  8km/h 73% 0.00in /  0mm 0 W/m2
21:09 60.4 °F /  15.8 °C 51.7 °F /  10.9 °C 29.97in /  1014.8hPa Calm   1mph /  1.6km/h 73% 0.00in /  0mm 0 W/m2
21:14 60.3 °F /  15.7 °C 51 °F /  10.6 °C 29.98in /  1015.1hPa West 0.2mph /  0.3km/h 4mph /  6.4km/h 71.5% 0.00in /  0mm 0 W/m2
21:19 60.1 °F /  15.6 °C 50.7 °F /  10.4 °C 29.98in /  1015.1hPa Calm   4mph /  6.4km/h 71% 0.00in /  0mm 0 W/m2
21:24 60 °F /  15.6 °C 50.6 °F /  10.3 °C 29.98in /  1015.1hPa Calm   4mph /  6.4km/h 71% 0.00in /  0mm 0 W/m2
21:29 59.8 °F /  15.4 °C 50 °F /  10 °C 29.98in /  1015.1hPa WNW 0.7mph /  1.1km/h 6mph /  9.7km/h 69.9% 0.00in /  0mm 0 W/m2
21:34 59.6 °F /  15.3 °C 49.4 °F /  9.7 °C 29.99in /  1015.5hPa WNW 0.3mph /  0.5km/h 6mph /  9.7km/h 69% 0.00in /  0mm 0 W/m2
21:39 59.5 °F /  15.3 °C 49.1 °F /  9.5 °C 29.99in /  1015.5hPa NW 0.5mph /  0.8km/h 4mph /  6.4km/h 68.6% 0.00in /  0mm 0 W/m2
21:44 59.2 °F /  15.1 °C 48.8 °F /  9.3 °C 29.99in /  1015.5hPa North 0.7mph /  1.1km/h 8mph /  12.9km/h 68.3% 0.00in /  0mm 0 W/m2
21:49 59 °F /  15 °C 48.8 °F /  9.3 °C 29.99in /  1015.5hPa NNW 1mph /  1.6km/h 8mph /  12.9km/h 68.8% 0.00in /  0mm 0 W/m2
21:54 58.8 °F /  14.9 °C 48.7 °F /  9.3 °C 29.99in /  1015.5hPa NNW 0.1mph /  0.2km/h 8mph /  12.9km/h 69.1% 0.00in /  0mm 0 W/m2
21:59 58.5 °F /  14.7 °C 48.5 °F /  9.2 °C 29.99in /  1015.5hPa NW 0.4mph /  0.6km/h 8mph /  12.9km/h 69.2% 0.00in /  0mm 0 W/m2
22:04 58.3 °F /  14.6 °C 48.4 °F /  9.1 °C 30.00in /  1015.8hPa Calm   8mph /  12.9km/h 69.6% 0.00in /  0mm 0 W/m2
22:09 58.1 °F /  14.5 °C 48.4 °F /  9.1 °C 30.00in /  1015.8hPa Calm   1mph /  1.6km/h 70% 0.00in /  0mm 0 W/m2
22:14 57.9 °F /  14.4 °C 48.2 °F /  9 °C 30.00in /  1015.8hPa Calm   1mph /  1.6km/h 70% 0.00in /  0mm 0 W/m2
22:19 57.7 °F /  14.3 °C 48.2 °F /  9 °C 30.00in /  1015.8hPa Calm   1mph /  1.6km/h 70.7% 0.00in /  0mm 0 W/m2
22:24 57.4 °F /  14.1 °C 48.1 °F /  8.9 °C 30.00in /  1015.8hPa NW 0.2mph /  0.3km/h 3mph /  4.8km/h 71% 0.00in /  0mm 0 W/m2
22:29 57.2 °F /  14 °C 48.1 °F /  8.9 °C 30.00in /  1015.8hPa WNW 0.5mph /  0.8km/h 3mph /  4.8km/h 71.5% 0.00in /  0mm 0 W/m2
22:34 56.9 °F /  13.8 °C 47.8 °F /  8.8 °C 30.00in /  1015.8hPa WNW 1.3mph /  2.1km/h 10mph /  16.1km/h 71.6% 0.00in /  0mm 0 W/m2
22:39 56.7 °F /  13.7 °C 47.2 °F /  8.4 °C 30.01in /  1016.1hPa NW 2mph /  3.2km/h 11mph /  17.7km/h 70.6% 0.00in /  0mm 0 W/m2
22:44 56.5 °F /  13.6 °C 46.8 °F /  8.2 °C 30.01in /  1016.1hPa NNW 0.1mph /  0.2km/h 11mph /  17.7km/h 70% 0.00in /  0mm 0 W/m2
22:49 56.3 °F /  13.5 °C 46.8 °F /  8.2 °C 30.00in /  1015.8hPa Calm   11mph /  17.7km/h 70.2% 0.00in /  0mm 0 W/m2
22:51 56.2 °F /  13.4 °C 47 °F /  8.3 °C 30.01in /  1016.1hPa Calm   11mph /  17.7km/h 71% 0.00in /  0mm 0 W/m2
23:00 55.8 °F /  13.2 °C 46.2 °F /  7.9 °C 30.01in /  1016.1hPa Calm   12mph /  19.3km/h 70% 0.00in /  0mm 0 W/m2
23:30 54.8 °F /  12.7 °C 44.8 °F /  7.1 °C 30.01in /  1016.1hPa Calm   3mph /  4.8km/h 69% 0.00in /  0mm 0 W/m2
Hartford County Weather
Compliments of Weather Underground - 4 mb